sim
Sign-in with your pilot id or email,
or register
Callsign
Passwort

Schedule Details

Flight Number: DLH1853 (2)
Departure: Milan Malpensa Airport (LIMC) at 08:10
Arrival: Munich Airport (EDDM) at 09:20
Route: Lufthansa Passenger Schedule. Enter filed route here before submitting Pirep.

Weather Information
Getting current METAR information for LIMC 291750Z 03003KT CAVOK 16/11 Q1016 NOSIG
Getting current METAR information for EDDM 291750Z 26005KT 9999 BKN020 11/09 Q1020 NOSIG

Schedule Frequency

Route Map